Terminal Aerodrome Forecast
Issued by NWS

Home | Current Version | Previous Version | Text Only | Print | Product List | Glossary On
Versions: 1 2 3 4 5 6 7 8 9 10 11 12 13 14 15 16 17 18 19 20 21 22 23 24 25 26 27 28 29
000
FTAK31 PAFA 311131
TAFAOM
TAF
PAOM 311131Z 3112/0112 22011KT 2SM -RA BR OVC004
     FM311800 22010KT 4SM -RA BR BKN006 OVC015
     FM010000 24009KT 6SM -SHRA BKN008 OVC020
     FM010800 25006KT 3SM BR VCSH BKN005 BKN030=

USA.gov is the U.S. government's official web portal to all federal, state and local government web resources and services.